createdAt,value
2022-08-10T00:01:11.769Z,62.5
2022-08-10T00:04:23.919Z,62.9
2022-08-10T00:07:36.056Z,63
2022-08-10T00:10:48.206Z,63.1
2022-08-10T00:14:00.358Z,63.4
2022-08-10T00:17:12.509Z,63.5
2022-08-10T00:20:24.664Z,63.7
2022-08-10T00:23:36.819Z,63.8
2022-08-10T00:26:48.974Z,64
2022-08-10T00:30:00.122Z,64
2022-08-10T00:33:12.274Z,64
2022-08-10T00:36:24.427Z,64.2
2022-08-10T00:39:36.574Z,64.6
2022-08-10T00:42:48.722Z,64.9
2022-08-10T00:46:00.879Z,64.9
2022-08-10T00:49:13.035Z,64.9
2022-08-10T00:52:24.205Z,65
2022-08-10T00:55:35.370Z,65.1
2022-08-10T00:58:46.546Z,65.4
2022-08-10T01:01:57.718Z,65.6
2022-08-10T01:05:09.861Z,65.7
2022-08-10T01:08:22.013Z,65.9
2022-08-10T01:11:34.161Z,66
2022-08-10T01:14:46.310Z,66.2
2022-08-10T01:17:58.465Z,66.4
2022-08-10T01:21:10.611Z,66.7
2022-08-10T01:24:22.760Z,66.9
2022-08-10T01:27:34.908Z,67
2022-08-10T01:30:47.064Z,67.3
2022-08-10T01:33:59.218Z,67.6
2022-08-10T01:37:11.371Z,67.9
2022-08-10T01:40:23.509Z,68.2
2022-08-10T01:43:34.669Z,68.5
2022-08-10T01:46:46.828Z,68.7
2022-08-10T01:49:58.989Z,69
2022-08-10T01:53:11.132Z,69.1
2022-08-10T01:56:23.272Z,69.3
2022-08-10T01:59:35.428Z,69.4
2022-08-10T02:02:47.576Z,69.2
2022-08-10T02:05:58.766Z,69.3
2022-08-10T02:09:09.919Z,69.8
2022-08-10T02:12:22.068Z,70
2022-08-10T02:15:34.214Z,70
2022-08-10T02:18:46.370Z,70.3
2022-08-10T02:21:58.515Z,70.5
2022-08-10T02:25:10.679Z,70.4
2022-08-10T02:28:22.825Z,70.4
2022-08-10T02:31:34.969Z,70.5
2022-08-10T02:34:47.123Z,70.8
2022-08-10T02:37:59.269Z,71.1
2022-08-10T02:41:11.429Z,71.3
2022-08-10T02:44:23.570Z,71.4
2022-08-10T02:47:35.732Z,71.6
2022-08-10T02:50:46.893Z,71.7
2022-08-10T02:53:59.047Z,71.7
2022-08-10T02:57:11.256Z,71.9
2022-08-10T03:00:23.388Z,72.1
2022-08-10T03:03:35.552Z,72.2
2022-08-10T03:06:47.704Z,72.4
2022-08-10T03:09:59.846Z,72.7
2022-08-10T03:13:11.025Z,73
2022-08-10T03:16:22.196Z,73
2022-08-10T03:19:33.365Z,73.1
2022-08-10T03:22:44.537Z,73.2
2022-08-10T03:25:55.708Z,73.2
2022-08-10T03:29:06.887Z,73.5
2022-08-10T03:32:19.035Z,73.5
2022-08-10T03:35:31.178Z,73.6
2022-08-10T03:38:43.338Z,73.5
2022-08-10T03:41:55.484Z,73.9
2022-08-10T03:45:07.638Z,73.9
2022-08-10T03:48:19.774Z,74
2022-08-10T03:51:31.926Z,74.1
2022-08-10T03:54:44.084Z,74.3
2022-08-10T03:57:56.235Z,74.3
2022-08-10T04:01:08.389Z,74.6
2022-08-10T04:04:20.530Z,74.9
2022-08-10T04:07:32.690Z,75.2
2022-08-10T04:10:43.847Z,75.4
2022-08-10T04:13:56.007Z,75.5
2022-08-10T04:17:08.156Z,75.5
2022-08-10T04:20:20.000Z,75.6
2022-08-10T04:23:32.456Z,75.7
2022-08-10T04:26:44.596Z,75.6
2022-08-10T04:29:56.749Z,75.9
2022-08-10T04:33:07.928Z,76.3
2022-08-10T04:36:19.100Z,76.7
2022-08-10T04:39:31.247Z,76.6
2022-08-10T04:42:42.421Z,76.8
2022-08-10T04:45:53.591Z,76.4
2022-08-10T04:49:05.734Z,76.1
2022-08-10T04:52:17.894Z,76.3
2022-08-10T04:55:30.039Z,76.3
2022-08-10T04:58:42.186Z,76.4
2022-08-10T05:01:54.338Z,76.2
2022-08-10T05:05:06.497Z,76.2
2022-08-10T05:08:18.635Z,76.2
2022-08-10T05:11:30.781Z,76.2
2022-08-10T05:14:42.949Z,76.2
2022-08-10T05:17:55.087Z,76.2
2022-08-10T05:21:07.240Z,76.2
2022-08-10T05:24:19.392Z,76.1
2022-08-10T05:27:30.553Z,76.1
2022-08-10T05:30:42.712Z,76.1
2022-08-10T05:33:54.855Z,76
2022-08-10T05:37:07.015Z,76.5
2022-08-10T05:40:19.160Z,76.5
2022-08-10T05:43:31.310Z,76.6
2022-08-10T05:46:43.454Z,76.4
2022-08-10T05:49:54.637Z,76
2022-08-10T05:53:05.790Z,76
2022-08-10T05:56:16.972Z,75.4
2022-08-10T05:59:28.132Z,75.4
2022-08-10T06:02:40.299Z,75.5
2022-08-10T06:05:52.439Z,75.5
2022-08-10T06:09:04.594Z,75
2022-08-10T06:12:16.734Z,74.8
2022-08-10T06:15:28.887Z,74.5
2022-08-10T06:18:41.047Z,74.5
2022-08-10T06:21:53.195Z,74.7
2022-08-10T06:25:05.357Z,74
2022-08-10T06:28:17.502Z,73.6
2022-08-10T06:31:29.638Z,73.9
2022-08-10T06:34:41.801Z,73.4
2022-08-10T06:37:53.941Z,73.6
2022-08-10T06:41:05.111Z,73.8
2022-08-10T06:44:17.259Z,73.6
2022-08-10T06:47:29.422Z,73.9
2022-08-10T06:50:41.561Z,72.8
2022-08-10T06:53:53.724Z,72.4
2022-08-10T06:57:05.856Z,72.6
2022-08-10T07:00:18.026Z,72.5
2022-08-10T07:03:29.183Z,72.4
2022-08-10T07:06:40.370Z,72
2022-08-10T07:09:51.529Z,71.4
2022-08-10T07:13:02.703Z,71
2022-08-10T07:16:13.877Z,70.8
2022-08-10T07:19:25.048Z,70.7
2022-08-10T07:22:36.227Z,70.5
2022-08-10T07:25:48.000Z,70.6
2022-08-10T07:29:00.525Z,70.7
2022-08-10T07:32:12.673Z,69.8
2022-08-10T07:35:24.815Z,69.5
2022-08-10T07:38:36.979Z,69.1
2022-08-10T07:41:49.113Z,69
2022-08-10T07:45:01.267Z,68.3
2022-08-10T07:48:13.416Z,67.4
2022-08-10T07:51:25.575Z,67.3
2022-08-10T07:54:37.719Z,65.6
2022-08-10T07:57:49.871Z,64.6
2022-08-10T08:01:02.034Z,63.9
2022-08-10T08:04:13.194Z,63.6
2022-08-10T08:07:25.339Z,64.7
2022-08-10T08:10:37.496Z,64.4
2022-08-10T08:13:49.649Z,63.6
2022-08-10T08:17:01.809Z,63.7
2022-08-10T08:20:13.957Z,63.4
2022-08-10T08:23:25.135Z,63.3
2022-08-10T08:26:36.300Z,62.5
2022-08-10T08:29:48.448Z,61.3
2022-08-10T08:33:00.598Z,61.3
2022-08-10T08:36:12.750Z,60.9
2022-08-10T08:39:24.900Z,60.8
2022-08-10T08:42:37.063Z,60.2
2022-08-10T08:45:49.197Z,60.2
2022-08-10T08:49:01.360Z,60.3
2022-08-10T08:52:13.509Z,59.4
2022-08-10T08:55:25.656Z,59.5
2022-08-10T08:58:37.805Z,58.2
2022-08-10T09:01:49.961Z,57.9
2022-08-10T09:05:02.108Z,56.9
2022-08-10T09:08:13.269Z,57.3
2022-08-10T09:11:25.423Z,55.6
2022-08-10T09:14:37.579Z,53.5
2022-08-10T09:17:49.733Z,53.6
2022-08-10T09:21:01.874Z,51.9
2022-08-10T09:24:14.042Z,53.5
2022-08-10T09:27:26.189Z,53.9
2022-08-10T09:30:37.357Z,53.6
2022-08-10T09:33:48.533Z,52.3
2022-08-10T09:36:59.716Z,48.5
2022-08-10T09:40:10.871Z,46.9
2022-08-10T09:43:22.045Z,47.3
2022-08-10T09:46:33.227Z,45.7
2022-08-10T09:49:45.372Z,46.3
2022-08-10T09:52:57.522Z,48.5
2022-08-10T09:56:09.684Z,48
2022-08-10T09:59:21.849Z,48.3
2022-08-10T10:02:33.993Z,48.6
2022-08-10T10:05:46.144Z,49.5
2022-08-10T10:08:58.293Z,48.8
2022-08-10T10:12:10.439Z,48.3
2022-08-10T10:15:22.592Z,48.6
2022-08-10T10:18:34.751Z,47.8
2022-08-10T10:21:46.914Z,47.4
2022-08-10T10:24:59.057Z,46.9
2022-08-10T10:28:10.223Z,46.3
2022-08-10T10:31:22.383Z,46.7
2022-08-10T10:34:34.522Z,45.5
2022-08-10T10:37:46.674Z,46.1
2022-08-10T10:40:58.839Z,46.7
2022-08-10T10:44:10.991Z,45.8
2022-08-10T10:47:23.131Z,45.7
2022-08-10T10:50:34.317Z,45.9
2022-08-10T10:53:45.481Z,45.4
2022-08-10T10:56:57.640Z,46
2022-08-10T11:00:08.816Z,45.2
2022-08-10T11:03:19.986Z,45.6
2022-08-10T11:06:32.139Z,45.4
2022-08-10T11:09:44.289Z,45.6
2022-08-10T11:12:56.430Z,45.2
2022-08-10T11:16:08.595Z,44.4
2022-08-10T11:19:20.745Z,45.4
2022-08-10T11:22:32.878Z,45.4
2022-08-10T11:25:45.031Z,44.9
2022-08-10T11:28:57.198Z,45.6
2022-08-10T11:32:09.354Z,43.5
2022-08-10T11:35:21.486Z,43.6
2022-08-10T11:38:33.654Z,44
2022-08-10T11:41:45.795Z,43.5
2022-08-10T11:44:56.972Z,42.8
2022-08-10T11:48:09.124Z,42.1
2022-08-10T11:51:21.263Z,43.2
2022-08-10T11:54:33.426Z,42.6
2022-08-10T11:57:45.564Z,42.4
2022-08-10T12:00:57.714Z,42.4
2022-08-10T12:04:09.877Z,43.6
2022-08-10T12:07:21.055Z,42.5
2022-08-10T12:10:32.217Z,41.2
2022-08-10T12:13:43.392Z,41.4
2022-08-10T12:16:54.561Z,41
2022-08-10T12:20:06.710Z,40.3
2022-08-10T12:23:18.872Z,40.8
2022-08-10T12:26:31.014Z,40.7
2022-08-10T12:29:43.181Z,40.9
2022-08-10T12:32:55.332Z,41.6
2022-08-10T12:36:07.484Z,40.5
2022-08-10T12:39:19.618Z,40.3
2022-08-10T12:42:31.782Z,40.4
2022-08-10T12:45:43.923Z,40.8
2022-08-10T12:48:56.091Z,38.8
2022-08-10T12:52:08.244Z,40
2022-08-10T12:55:20.392Z,39.1
2022-08-10T12:58:31.552Z,37.9
2022-08-10T13:01:43.697Z,38.1
2022-08-10T13:08:08.021Z,37.2
2022-08-10T13:11:20.159Z,37.2
2022-08-10T13:14:32.308Z,37
2022-08-10T13:17:44.461Z,36.3
2022-08-10T13:20:56.628Z,36.5
2022-08-10T13:24:07.801Z,37.1
2022-08-10T13:27:18.969Z,36.3
2022-08-10T13:30:31.115Z,35.8
2022-08-10T13:33:43.270Z,36
2022-08-10T13:36:55.424Z,36.1
2022-08-10T13:40:07.567Z,35
2022-08-10T13:43:19.716Z,34.5
2022-08-10T13:46:31.872Z,35
2022-08-10T13:49:44.035Z,34.5
2022-08-10T13:52:56.181Z,35.3
2022-08-10T13:56:08.336Z,34.2
2022-08-10T13:59:20.478Z,34.1
2022-08-10T14:02:32.636Z,34.7
2022-08-10T14:05:44.783Z,32.7
2022-08-10T14:08:55.955Z,32.7
2022-08-10T14:12:08.103Z,33.1
2022-08-10T14:15:20.248Z,32.7
2022-08-10T14:18:32.407Z,33.5
2022-08-10T14:21:44.557Z,33.1
2022-08-10T14:24:56.710Z,31.5
2022-08-10T14:28:08.858Z,32.6
2022-08-10T14:31:20.038Z,33.4
2022-08-10T14:34:31.218Z,32.2
2022-08-10T14:37:42.389Z,32.4
2022-08-10T14:40:53.554Z,33.4
2022-08-10T14:44:04.735Z,33.6
2022-08-10T14:47:15.903Z,33.5
2022-08-10T14:50:28.057Z,34
2022-08-10T14:53:40.205Z,33.6
2022-08-10T14:56:52.357Z,34.6
2022-08-10T15:00:04.522Z,33.3
2022-08-10T15:03:16.656Z,33.3
2022-08-10T15:06:28.823Z,32.6
2022-08-10T15:09:40.968Z,31
2022-08-10T15:12:53.125Z,31.6
2022-08-10T15:16:05.269Z,32.3
2022-08-10T15:22:29.578Z,31.9
2022-08-10T15:25:41.736Z,31.1
2022-08-10T15:28:52.907Z,30.6
2022-08-10T15:32:05.058Z,31
2022-08-10T15:35:17.210Z,30.9
2022-08-10T15:38:29.345Z,30.9
2022-08-10T15:41:41.516Z,30.5
2022-08-10T15:44:53.654Z,31.3
2022-08-10T15:48:05.802Z,31.7
2022-08-10T15:51:17.972Z,32.8
2022-08-10T15:54:29.137Z,33.7
2022-08-10T15:57:40.312Z,34.2
2022-08-10T16:00:51.496Z,33.7
2022-08-10T16:04:02.650Z,34.5
2022-08-10T16:07:14.806Z,33.5
2022-08-10T16:10:26.951Z,33.4
2022-08-10T16:13:39.111Z,33.1
2022-08-10T16:16:51.000Z,33.2
2022-08-10T16:20:03.420Z,33.2
2022-08-10T16:23:15.577Z,33
2022-08-10T16:26:27.728Z,33.6
2022-08-10T16:29:39.871Z,32.4
2022-08-10T16:32:52.016Z,32.5
2022-08-10T16:36:04.185Z,33.9
2022-08-10T16:39:16.332Z,32.8
2022-08-10T16:42:28.477Z,33.4
2022-08-10T16:45:39.646Z,33.5
2022-08-10T16:48:51.807Z,33.9
2022-08-10T16:52:03.950Z,34.1
2022-08-10T16:55:16.101Z,34.4
2022-08-10T16:58:28.249Z,33.9
2022-08-10T17:01:40.413Z,33.9
2022-08-10T17:04:52.562Z,34.4
2022-08-10T17:08:03.741Z,33.5
2022-08-10T17:11:14.916Z,34.2
2022-08-10T17:14:26.083Z,35.4
2022-08-10T17:17:37.258Z,35.6
2022-08-10T17:20:49.398Z,35.6
2022-08-10T17:24:01.549Z,36
2022-08-10T17:27:13.713Z,36.6
2022-08-10T17:30:25.849Z,36.5
2022-08-10T17:33:37.999Z,36.2
2022-08-10T17:36:50.145Z,38.8
2022-08-10T17:40:02.300Z,39
2022-08-10T17:43:14.459Z,39.4
2022-08-10T17:46:26.610Z,39.3
2022-08-10T17:49:38.761Z,39.2
2022-08-10T17:52:50.917Z,39.1
2022-08-10T17:56:03.062Z,39.8
2022-08-10T17:59:14.227Z,39.8
2022-08-10T18:02:26.376Z,40.5
2022-08-10T18:05:37.537Z,42
2022-08-10T18:08:49.705Z,42.3
2022-08-10T18:12:01.837Z,42.4
2022-08-10T18:15:13.992Z,43
2022-08-10T18:18:26.153Z,43.2
2022-08-10T18:21:37.327Z,44.1
2022-08-10T18:24:48.496Z,41.6
2022-08-10T18:27:59.676Z,43.2
2022-08-10T18:31:10.847Z,42.3
2022-08-10T18:34:22.991Z,44.4
2022-08-10T18:37:35.144Z,44.3
2022-08-10T18:40:47.281Z,44.7
2022-08-10T18:43:59.430Z,44
2022-08-10T18:47:11.593Z,45.5
2022-08-10T18:50:23.734Z,44.6
2022-08-10T18:53:35.890Z,43.5
2022-08-10T18:56:48.047Z,43.5
2022-08-10T19:00:00.180Z,44.6
2022-08-10T19:03:12.328Z,45.6
2022-08-10T19:06:24.486Z,44.6
2022-08-10T19:09:36.647Z,45
2022-08-10T19:12:47.801Z,46.7
2022-08-10T19:15:59.944Z,45.6
2022-08-10T19:19:12.094Z,46.4
2022-08-10T19:22:24.245Z,46.8
2022-08-10T19:25:36.408Z,47.6
2022-08-10T19:28:48.549Z,46.8
2022-08-10T19:32:00.710Z,46.4
2022-08-10T19:35:11.883Z,48.1
2022-08-10T19:38:23.041Z,49.5
2022-08-10T19:41:35.205Z,47.6
2022-08-10T19:44:47.355Z,48.5
2022-08-10T19:47:59.506Z,48.5
2022-08-10T19:51:11.651Z,49
2022-08-10T19:54:23.798Z,48.5
2022-08-10T19:57:35.965Z,49
2022-08-10T20:00:48.113Z,50
2022-08-10T20:04:00.248Z,50
2022-08-10T20:07:12.406Z,50.3
2022-08-10T20:10:24.566Z,50.3
2022-08-10T20:13:36.703Z,50.6
2022-08-10T20:16:48.852Z,50.1
2022-08-10T20:20:00.018Z,49.9
2022-08-10T20:23:12.185Z,50.7
2022-08-10T20:26:24.331Z,51.6
2022-08-10T20:29:36.476Z,50.3
2022-08-10T20:32:48.619Z,50.1
2022-08-10T20:36:00.789Z,50.7
2022-08-10T20:39:12.931Z,50.6
2022-08-10T20:42:24.100Z,50.5
2022-08-10T20:45:35.284Z,51.1
2022-08-10T20:48:47.434Z,51.4
2022-08-10T20:51:59.578Z,51.6
2022-08-10T20:55:11.715Z,51.7
2022-08-10T20:58:23.876Z,52.1
2022-08-10T21:01:36.016Z,52.5
2022-08-10T21:04:48.180Z,52.4
2022-08-10T21:08:00.330Z,52.7
2022-08-10T21:11:12.468Z,52.7
2022-08-10T21:14:24.632Z,53.4
2022-08-10T21:17:36.770Z,53.4
2022-08-10T21:20:48.931Z,53.8
2022-08-10T21:24:01.078Z,54.1
2022-08-10T21:27:12.247Z,54.3
2022-08-10T21:30:24.400Z,54.7
2022-08-10T21:36:48.692Z,54.8
2022-08-10T21:40:00.844Z,54.9
2022-08-10T21:43:13.005Z,55.2
2022-08-10T21:46:25.146Z,55.4
2022-08-10T21:49:37.294Z,55.5
2022-08-10T21:52:48.482Z,55.9
2022-08-10T21:55:59.632Z,55.8
2022-08-10T21:59:10.821Z,56.2
2022-08-10T22:02:21.985Z,55.9
2022-08-10T22:05:34.139Z,56.4
2022-08-10T22:08:46.278Z,56.3
2022-08-10T22:11:58.422Z,56.2
2022-08-10T22:15:10.574Z,57.1
2022-08-10T22:18:22.723Z,56.7
2022-08-10T22:21:34.876Z,56.3
2022-08-10T22:24:47.025Z,56.6
2022-08-10T22:27:59.184Z,56.2
2022-08-10T22:31:11.329Z,56.8
2022-08-10T22:34:23.485Z,56.9
2022-08-10T22:37:35.641Z,56.3
2022-08-10T22:40:47.773Z,56.5
2022-08-10T22:43:58.957Z,56.3
2022-08-10T22:47:11.102Z,56.6
2022-08-10T22:50:23.293Z,57
2022-08-10T22:53:35.459Z,57.2
2022-08-10T22:56:47.599Z,57.3
2022-08-10T22:59:59.742Z,57.2
2022-08-10T23:03:11.898Z,57
2022-08-10T23:06:23.076Z,56.7
2022-08-10T23:09:34.247Z,56.8
2022-08-10T23:12:46.388Z,57.3
2022-08-10T23:15:58.545Z,56.9
2022-08-10T23:19:10.704Z,57
2022-08-10T23:22:22.836Z,57.1
2022-08-10T23:25:34.997Z,57.1
2022-08-10T23:28:47.137Z,57.3
2022-08-10T23:31:59.305Z,57.6
2022-08-10T23:35:11.454Z,58
2022-08-10T23:38:23.000Z,58
2022-08-10T23:41:35.742Z,58
2022-08-10T23:44:47.904Z,57.9
2022-08-10T23:48:00.043Z,57.8
2022-08-10T23:51:11.221Z,57.8
2022-08-10T23:54:23.367Z,57.9
2022-08-10T23:57:35.520Z,58.1
